Alamance, North Carolina
Current Conditions -  °F | °C
As of 1:54 PM on Saturday 20 Dec 2014 (Local Time) from KBUY Reporting Station
Overcast Overcast  
Wind Chill:   Ceiling: 1000
Heat Index:   Visibility: 8mi
Dew Point: -1°   Wind: 0mph
Humidity: 79%   Direction: NA
Pressure: 30.23"   Gusts: NA
Location:  36.04°N, 79.49°W
Report Text: KBUY 201854Z AUTO 00000KT 8SM OVC010 03/M01 A3023 RMK AO2 SLP239 T00281006
Loading
Personal Weather Stations






























Interactive Weather Map New forecast layout! Learn more

10-Day Weather Forecast

Advertisements
Track Severe Weather on mobile